createdAt,value
2023-05-03T00:05:08.487Z,1016.4
2023-05-03T00:15:08.497Z,1016.3
2023-05-03T00:25:08.477Z,1016.2
2023-05-03T00:35:08.308Z,1016.1
2023-05-03T00:45:08.470Z,1016
2023-05-03T00:55:08.319Z,1016.1
2023-05-03T01:05:08.287Z,1016.2
2023-05-03T01:15:08.235Z,1016.2
2023-05-03T01:25:08.140Z,1016.1
2023-05-03T01:35:08.193Z,1016.1
2023-05-03T01:45:08.121Z,1016.1
2023-05-03T01:55:08.083Z,1016.1
2023-05-03T02:05:08.189Z,1016.2
2023-05-03T02:15:08.080Z,1016.2
2023-05-03T02:25:07.970Z,1016.3
2023-05-03T02:35:08.040Z,1016.4
2023-05-03T02:45:08.048Z,1016.5
2023-05-03T02:55:07.963Z,1016.5
2023-05-03T03:05:07.886Z,1016.5
2023-05-03T03:15:07.855Z,1016.4
2023-05-03T03:25:07.882Z,1016.4
2023-05-03T03:35:07.884Z,1016.3
2023-05-03T03:45:07.787Z,1016.2
2023-05-03T03:55:07.861Z,1016.2
2023-05-03T04:05:07.728Z,1016.2
2023-05-03T04:15:07.790Z,1016.1
2023-05-03T04:25:07.689Z,1016.1
2023-05-03T04:35:07.655Z,1015.9
2023-05-03T04:45:07.636Z,1015.8
2023-05-03T04:55:07.613Z,1016
2023-05-03T05:05:07.583Z,1016.2
2023-05-03T05:15:07.592Z,1016.3
2023-05-03T05:25:07.676Z,1016.3
2023-05-03T05:35:07.673Z,1016.4
2023-05-03T05:45:07.487Z,1016.5
2023-05-03T05:55:07.456Z,1016.7
2023-05-03T06:05:07.455Z,1016.8
2023-05-03T06:15:07.463Z,1016.8
2023-05-03T06:25:07.587Z,1016.9
2023-05-03T06:35:07.344Z,1016.9
2023-05-03T06:45:07.306Z,1017
2023-05-03T06:55:07.288Z,1017
2023-05-03T07:05:07.363Z,1017.1
2023-05-03T07:15:07.324Z,1017
2023-05-03T07:25:07.226Z,1017
2023-05-03T07:35:07.337Z,1017
2023-05-03T07:45:07.177Z,1016.9
2023-05-03T07:55:07.224Z,1016.8
2023-05-03T08:05:07.081Z,1016.7
2023-05-03T08:15:07.043Z,1016.6
2023-05-03T08:25:07.067Z,1016.6
2023-05-03T08:35:07.227Z,1016.7
2023-05-03T08:45:06.943Z,1016.6
2023-05-03T08:55:06.917Z,1016.6
2023-05-03T09:05:06.877Z,1016.6
2023-05-03T09:15:06.863Z,1016.5
2023-05-03T09:25:06.961Z,1016.4
2023-05-03T09:35:06.809Z,1016.3
2023-05-03T09:45:06.751Z,1016.2
2023-05-03T09:55:06.945Z,1016.2
2023-05-03T10:05:06.858Z,1016
2023-05-03T10:15:06.730Z,1016
2023-05-03T10:25:06.752Z,1015.9
2023-05-03T10:35:06.684Z,1015.7
2023-05-03T10:45:06.575Z,1015.7
2023-05-03T10:55:06.539Z,1015.6
2023-05-03T11:05:06.545Z,1015.5
2023-05-03T11:15:06.450Z,1015.4
2023-05-03T11:25:06.636Z,1015.4
2023-05-03T11:35:06.432Z,1015.3
2023-05-03T11:45:06.350Z,1015.2
2023-05-03T11:55:06.423Z,1015.1
2023-05-03T12:05:06.557Z,1015
2023-05-03T12:15:06.373Z,1014.9
2023-05-03T12:25:06.341Z,1014.8
2023-05-03T12:35:06.205Z,1014.8
2023-05-03T12:45:06.285Z,1014.7
2023-05-03T12:55:06.139Z,1014.6
2023-05-03T13:05:06.255Z,1014.4
2023-05-03T13:15:06.189Z,1014.3
2023-05-03T13:25:06.016Z,1014
2023-05-03T13:35:05.998Z,1013.9
2023-05-03T13:45:06.021Z,1013.9
2023-05-03T13:55:05.959Z,1013.7
2023-05-03T14:05:06.104Z,1013.5
2023-05-03T14:15:05.874Z,1013.4
2023-05-03T14:25:05.898Z,1013.3
2023-05-03T14:35:05.786Z,1013.1
2023-05-03T14:45:05.823Z,1013
2023-05-03T14:55:05.768Z,1012.9
2023-05-03T15:05:05.686Z,1012.8
2023-05-03T15:15:05.690Z,1012.7
2023-05-03T15:25:05.634Z,1012.6
2023-05-03T15:35:05.605Z,1012.5
2023-05-03T15:45:05.558Z,1012.5
2023-05-03T15:55:05.581Z,1012.5
2023-05-03T16:05:05.736Z,1012.4
2023-05-03T16:15:05.491Z,1012.4
2023-05-03T16:25:05.539Z,1012.3
2023-05-03T16:35:05.450Z,1012.3
2023-05-03T16:45:05.337Z,1012.2
2023-05-03T16:55:05.341Z,1012.2
2023-05-03T17:05:05.271Z,1012.1
2023-05-03T17:15:05.348Z,1012.1
2023-05-03T17:25:05.224Z,1012.1
2023-05-03T17:35:05.297Z,1012
2023-05-03T17:45:05.336Z,1012
2023-05-03T17:55:05.342Z,1012
2023-05-03T18:05:05.217Z,1012
2023-05-03T18:15:05.191Z,1012
2023-05-03T18:25:04.995Z,1012
2023-05-03T18:35:05.195Z,1012
2023-05-03T18:45:04.937Z,1012
2023-05-03T18:55:04.901Z,1012
2023-05-03T19:05:05.012Z,1012
2023-05-03T19:15:05.024Z,1012.1
2023-05-03T19:25:04.802Z,1012.1
2023-05-03T19:35:04.766Z,1012
2023-05-03T19:45:04.742Z,1012.1
2023-05-03T19:55:04.704Z,1012.1
2023-05-03T20:05:04.674Z,1012
2023-05-03T20:15:04.680Z,1012
2023-05-03T20:25:04.622Z,1012
2023-05-03T20:35:04.592Z,1012.1
2023-05-03T20:45:04.555Z,1012.1
2023-05-03T20:55:04.520Z,1012
2023-05-03T21:05:04.480Z,1011.9
2023-05-03T21:15:04.456Z,1012
2023-05-03T21:25:04.422Z,1011.9
2023-05-03T21:35:04.387Z,1011.9
2023-05-03T21:45:04.372Z,1011.8
2023-05-03T21:55:04.326Z,1011.6
2023-05-03T22:05:04.308Z,1011.5
2023-05-03T22:15:04.345Z,1011.4
2023-05-03T22:25:04.235Z,1011.4
2023-05-03T22:35:04.212Z,1011.4
2023-05-03T22:45:04.201Z,1011.3
2023-05-03T22:55:04.166Z,1011.3
2023-05-03T23:05:04.116Z,1011.4
2023-05-03T23:15:04.093Z,1011.4
2023-05-03T23:25:04.059Z,1011.3
2023-05-03T23:35:04.039Z,1011.3
2023-05-03T23:45:03.992Z,1011.2
2023-05-03T23:55:03.969Z,1011.1
